sensor_id;sensor_type;location;lat;lon;timestamp;pressure;altitude;pressure_sealevel;temperature;humidity
56400;BME280;42298;53.638;9.876;2023-07-31T00:00:55;100626.28;;;18.48;75.66
56400;BME280;42298;53.638;9.876;2023-07-31T00:03:20;100621.88;;;18.47;75.50
56400;BME280;42298;53.638;9.876;2023-07-31T00:05:49;100623.06;;;18.30;76.02
56400;BME280;42298;53.638;9.876;2023-07-31T00:08:14;100609.31;;;18.37;76.25
56400;BME280;42298;53.638;9.876;2023-07-31T00:10:39;100611.72;;;18.39;75.68
56400;BME280;42298;53.638;9.876;2023-07-31T00:13:05;100612.53;;;18.39;76.09
56400;BME280;42298;53.638;9.876;2023-07-31T00:15:31;100598.84;;;18.34;75.68
56400;BME280;42298;53.638;9.876;2023-07-31T00:17:56;100609.31;;;18.37;76.06
56400;BME280;42298;53.638;9.876;2023-07-31T00:20:21;100607.16;;;18.50;75.57
56400;BME280;42298;53.638;9.876;2023-07-31T00:22:46;100599.75;;;18.57;75.03
56400;BME280;42298;53.638;9.876;2023-07-31T00:25:12;100600.13;;;18.56;75.27
56400;BME280;42298;53.638;9.876;2023-07-31T00:27:37;100595.13;;;18.46;75.22
56400;BME280;42298;53.638;9.876;2023-07-31T00:30:05;100590.28;;;18.43;75.90
56400;BME280;42298;53.638;9.876;2023-07-31T00:32:30;100594.53;;;18.56;75.38
56400;BME280;42298;53.638;9.876;2023-07-31T00:34:55;100579.97;;;18.43;74.90
56400;BME280;42298;53.638;9.876;2023-07-31T00:37:21;100583.84;;;18.58;75.71
56400;BME280;42298;53.638;9.876;2023-07-31T00:39:46;100587.44;;;18.58;75.42
56400;BME280;42298;53.638;9.876;2023-07-31T00:42:11;100588.09;;;18.52;74.72
56400;BME280;42298;53.638;9.876;2023-07-31T00:44:37;100587.97;;;18.45;74.95
56400;BME280;42298;53.638;9.876;2023-07-31T00:47:02;100575.66;;;18.30;74.70
56400;BME280;42298;53.638;9.876;2023-07-31T00:49:27;100582.94;;;18.35;75.16
56400;BME280;42298;53.638;9.876;2023-07-31T00:51:53;100574.84;;;18.30;75.61
56400;BME280;42298;53.638;9.876;2023-07-31T00:54:19;100577.72;;;18.33;74.92
56400;BME280;42298;53.638;9.876;2023-07-31T00:56:45;100568.75;;;18.24;75.28
56400;BME280;42298;53.638;9.876;2023-07-31T00:59:11;100575.22;;;18.28;75.32
56400;BME280;42298;53.638;9.876;2023-07-31T01:01:37;100569.50;;;18.21;75.03
56400;BME280;42298;53.638;9.876;2023-07-31T01:04:02;100563.69;;;18.11;75.01
56400;BME280;42298;53.638;9.876;2023-07-31T01:06:39;100567.19;;;18.08;75.63
56400;BME280;42298;53.638;9.876;2023-07-31T01:09:16;100565.78;;;18.17;74.74
56400;BME280;42298;53.638;9.876;2023-07-31T01:11:52;100560.31;;;18.21;74.67
56400;BME280;42298;53.638;9.876;2023-07-31T01:14:18;100560.91;;;18.30;75.08
56400;BME280;42298;53.638;9.876;2023-07-31T01:16:43;100557.06;;;18.19;74.85
56400;BME280;42298;53.638;9.876;2023-07-31T01:19:10;100544.53;;;18.09;74.69
56400;BME280;42298;53.638;9.876;2023-07-31T01:24:28;100559.09;;;18.37;74.68
56400;BME280;42298;53.638;9.876;2023-07-31T01:27:10;100563.50;;;18.38;74.27
56400;BME280;42298;53.638;9.876;2023-07-31T01:29:55;100545.56;;;18.20;74.34
56400;BME280;42298;53.638;9.876;2023-07-31T01:32:22;100541.97;;;18.20;74.95
56400;BME280;42298;53.638;9.876;2023-07-31T01:34:48;100546.09;;;18.26;74.30
56400;BME280;42298;53.638;9.876;2023-07-31T01:37:15;100548.56;;;18.31;74.86
56400;BME280;42298;53.638;9.876;2023-07-31T01:39:40;100536.56;;;18.27;74.35
56400;BME280;42298;53.638;9.876;2023-07-31T01:42:08;100529.94;;;18.16;75.03
56400;BME280;42298;53.638;9.876;2023-07-31T01:44:33;100533.75;;;18.27;75.15
56400;BME280;42298;53.638;9.876;2023-07-31T01:46:58;100538.53;;;18.26;74.80
56400;BME280;42298;53.638;9.876;2023-07-31T01:49:25;100543.38;;;18.29;74.89
56400;BME280;42298;53.638;9.876;2023-07-31T01:51:50;100531.94;;;18.15;75.37
56400;BME280;42298;53.638;9.876;2023-07-31T01:54:16;100507.22;;;18.14;75.42
56400;BME280;42298;53.638;9.876;2023-07-31T01:56:41;100522.97;;;18.25;75.08
56400;BME280;42298;53.638;9.876;2023-07-31T01:59:06;100514.16;;;18.23;75.53
56400;BME280;42298;53.638;9.876;2023-07-31T02:01:31;100503.38;;;18.22;75.64
56400;BME280;42298;53.638;9.876;2023-07-31T02:03:57;100509.78;;;18.22;75.73
56400;BME280;42298;53.638;9.876;2023-07-31T02:06:22;100514.63;;;18.25;75.42
56400;BME280;42298;53.638;9.876;2023-07-31T02:08:48;100506.47;;;18.17;76.37
56400;BME280;42298;53.638;9.876;2023-07-31T02:11:13;100504.19;;;18.03;76.57
56400;BME280;42298;53.638;9.876;2023-07-31T02:13:39;100510.34;;;18.12;77.07
56400;BME280;42298;53.638;9.876;2023-07-31T02:16:05;100500.94;;;18.01;77.23
56400;BME280;42298;53.638;9.876;2023-07-31T02:18:30;100513.78;;;18.06;77.23
56400;BME280;42298;53.638;9.876;2023-07-31T02:20:56;100503.75;;;18.20;76.99
56400;BME280;42298;53.638;9.876;2023-07-31T02:23:21;100507.06;;;18.26;76.86
56400;BME280;42298;53.638;9.876;2023-07-31T02:25:47;100500.91;;;18.17;76.90
56400;BME280;42298;53.638;9.876;2023-07-31T02:28:12;100497.06;;;18.06;78.01
56400;BME280;42298;53.638;9.876;2023-07-31T02:30:38;100489.59;;;18.10;77.58
56400;BME280;42298;53.638;9.876;2023-07-31T02:33:04;100486.66;;;18.03;78.55
56400;BME280;42298;53.638;9.876;2023-07-31T02:35:29;100492.09;;;18.15;78.15
56400;BME280;42298;53.638;9.876;2023-07-31T02:37:54;100485.31;;;18.16;78.04
56400;BME280;42298;53.638;9.876;2023-07-31T02:40:20;100486.97;;;18.17;77.74
56400;BME280;42298;53.638;9.876;2023-07-31T02:42:45;100487.84;;;18.21;77.92
56400;BME280;42298;53.638;9.876;2023-07-31T02:45:10;100485.91;;;18.25;77.57
56400;BME280;42298;53.638;9.876;2023-07-31T02:47:36;100484.97;;;18.17;78.08
56400;BME280;42298;53.638;9.876;2023-07-31T02:50:05;100469.66;;;18.08;78.70
56400;BME280;42298;53.638;9.876;2023-07-31T02:52:30;100474.31;;;18.04;79.29
56400;BME280;42298;53.638;9.876;2023-07-31T02:54:55;100476.81;;;18.09;79.01
56400;BME280;42298;53.638;9.876;2023-07-31T02:57:21;100478.00;;;18.08;79.37
56400;BME280;42298;53.638;9.876;2023-07-31T02:59:46;100467.00;;;18.15;79.02
56400;BME280;42298;53.638;9.876;2023-07-31T03:02:11;100475.94;;;18.24;78.58
56400;BME280;42298;53.638;9.876;2023-07-31T03:04:38;100470.25;;;18.17;78.67
56400;BME280;42298;53.638;9.876;2023-07-31T03:07:03;100470.28;;;18.20;78.96
56400;BME280;42298;53.638;9.876;2023-07-31T03:09:29;100476.81;;;18.28;79.10
56400;BME280;42298;53.638;9.876;2023-07-31T03:11:55;100471.03;;;18.17;79.57
56400;BME280;42298;53.638;9.876;2023-07-31T03:14:21;100470.38;;;18.24;78.92
56400;BME280;42298;53.638;9.876;2023-07-31T03:16:46;100460.25;;;18.35;79.09
56400;BME280;42298;53.638;9.876;2023-07-31T03:19:11;100460.69;;;18.37;78.26
56400;BME280;42298;53.638;9.876;2023-07-31T03:21:37;100464.44;;;18.25;78.94
56400;BME280;42298;53.638;9.876;2023-07-31T03:24:02;100452.84;;;18.23;79.76
56400;BME280;42298;53.638;9.876;2023-07-31T03:26:33;100442.72;;;18.34;79.14
56400;BME280;42298;53.638;9.876;2023-07-31T03:28:59;100445.88;;;18.33;78.54
56400;BME280;42298;53.638;9.876;2023-07-31T03:31:24;100450.00;;;18.20;78.85
56400;BME280;42298;53.638;9.876;2023-07-31T03:33:49;100440.94;;;18.26;79.17
56400;BME280;42298;53.638;9.876;2023-07-31T03:36:14;100450.22;;;18.30;79.24
56400;BME280;42298;53.638;9.876;2023-07-31T03:38:40;100432.66;;;18.30;78.70
56400;BME280;42298;53.638;9.876;2023-07-31T03:41:05;100447.59;;;18.37;78.84
56400;BME280;42298;53.638;9.876;2023-07-31T03:43:31;100445.28;;;18.43;78.70
56400;BME280;42298;53.638;9.876;2023-07-31T03:45:59;100445.25;;;18.39;78.96
56400;BME280;42298;53.638;9.876;2023-07-31T03:48:24;100455.03;;;18.33;79.81
56400;BME280;42298;53.638;9.876;2023-07-31T03:50:49;100444.25;;;18.32;79.45
56400;BME280;42298;53.638;9.876;2023-07-31T03:53:15;100448.94;;;18.28;79.49
56400;BME280;42298;53.638;9.876;2023-07-31T03:55:40;100432.81;;;18.18;79.54
56400;BME280;42298;53.638;9.876;2023-07-31T03:58:05;100448.66;;;18.33;79.59
56400;BME280;42298;53.638;9.876;2023-07-31T04:00:30;100439.34;;;18.25;80.13
56400;BME280;42298;53.638;9.876;2023-07-31T04:02:56;100422.53;;;18.22;80.08
56400;BME280;42298;53.638;9.876;2023-07-31T04:05:21;100446.03;;;18.40;79.56
56400;BME280;42298;53.638;9.876;2023-07-31T04:07:46;100446.03;;;18.40;79.16
56400;BME280;42298;53.638;9.876;2023-07-31T04:10:15;100433.28;;;18.39;78.98
56400;BME280;42298;53.638;9.876;2023-07-31T04:12:40;100447.78;;;18.48;79.74
56400;BME280;42298;53.638;9.876;2023-07-31T04:15:06;100445.84;;;18.52;79.45
56400;BME280;42298;53.638;9.876;2023-07-31T04:17:31;100435.41;;;18.45;79.55
56400;BME280;42298;53.638;9.876;2023-07-31T04:19:56;100437.13;;;18.53;79.13
56400;BME280;42298;53.638;9.876;2023-07-31T04:22:22;100431.78;;;18.45;79.83
56400;BME280;42298;53.638;9.876;2023-07-31T04:24:47;100429.50;;;18.50;79.35
56400;BME280;42298;53.638;9.876;2023-07-31T04:27:12;100426.09;;;18.38;79.65
56400;BME280;42298;53.638;9.876;2023-07-31T04:29:38;100420.63;;;18.45;79.97
56400;BME280;42298;53.638;9.876;2023-07-31T04:32:05;100416.72;;;18.49;79.39
56400;BME280;42298;53.638;9.876;2023-07-31T04:34:30;100415.25;;;18.55;79.77
56400;BME280;42298;53.638;9.876;2023-07-31T04:36:55;100421.56;;;18.52;79.43
56400;BME280;42298;53.638;9.876;2023-07-31T04:39:21;100416.78;;;18.53;79.82
56400;BME280;42298;53.638;9.876;2023-07-31T04:41:46;100423.28;;;18.60;79.63
56400;BME280;42298;53.638;9.876;2023-07-31T04:44:11;100427.34;;;18.63;79.67
56400;BME280;42298;53.638;9.876;2023-07-31T04:46:37;100420.59;;;18.64;79.58
56400;BME280;42298;53.638;9.876;2023-07-31T04:49:02;100431.25;;;18.58;79.40
56400;BME280;42298;53.638;9.876;2023-07-31T04:51:28;100428.69;;;18.50;79.71
56400;BME280;42298;53.638;9.876;2023-07-31T04:53:54;100417.84;;;18.45;80.43
56400;BME280;42298;53.638;9.876;2023-07-31T04:56:21;100422.25;;;18.46;80.24
56400;BME280;42298;53.638;9.876;2023-07-31T04:58:46;100408.28;;;18.46;80.66
56400;BME280;42298;53.638;9.876;2023-07-31T05:01:11;100420.47;;;18.57;80.00
56400;BME280;42298;53.638;9.876;2023-07-31T05:03:37;100413.88;;;18.46;80.25
56400;BME280;42298;53.638;9.876;2023-07-31T05:06:02;100416.84;;;18.56;80.31
56400;BME280;42298;53.638;9.876;2023-07-31T05:08:27;100407.25;;;18.54;80.03
56400;BME280;42298;53.638;9.876;2023-07-31T05:10:52;100413.63;;;18.77;80.09
56400;BME280;42298;53.638;9.876;2023-07-31T05:13:18;100416.75;;;18.72;78.99
56400;BME280;42298;53.638;9.876;2023-07-31T05:15:43;100413.69;;;18.58;79.91
56400;BME280;42298;53.638;9.876;2023-07-31T05:18:08;100412.38;;;18.52;80.36
56400;BME280;42298;53.638;9.876;2023-07-31T05:20:34;100410.34;;;18.49;80.97
56400;BME280;42298;53.638;9.876;2023-07-31T05:23:00;100404.84;;;18.52;80.64
56400;BME280;42298;53.638;9.876;2023-07-31T05:25:25;100390.81;;;18.49;81.08
56400;BME280;42298;53.638;9.876;2023-07-31T05:27:51;100404.88;;;18.56;81.29
56400;BME280;42298;53.638;9.876;2023-07-31T05:30:16;100396.09;;;18.54;80.48
56400;BME280;42298;53.638;9.876;2023-07-31T05:32:41;100385.06;;;18.38;81.71
56400;BME280;42298;53.638;9.876;2023-07-31T05:35:07;100390.44;;;18.50;81.69
56400;BME280;42298;53.638;9.876;2023-07-31T05:37:32;100387.38;;;18.55;81.60
56400;BME280;42298;53.638;9.876;2023-07-31T05:39:57;100396.22;;;18.61;81.78
56400;BME280;42298;53.638;9.876;2023-07-31T05:42:23;100390.56;;;18.57;81.38
56400;BME280;42298;53.638;9.876;2023-07-31T05:44:48;100392.94;;;18.55;81.43
56400;BME280;42298;53.638;9.876;2023-07-31T05:47:13;100391.38;;;18.58;81.64
56400;BME280;42298;53.638;9.876;2023-07-31T05:49:39;100387.41;;;18.59;81.78
56400;BME280;42298;53.638;9.876;2023-07-31T05:52:04;100388.28;;;18.63;81.28
56400;BME280;42298;53.638;9.876;2023-07-31T05:54:30;100398.56;;;18.59;81.91
56400;BME280;42298;53.638;9.876;2023-07-31T05:56:56;100393.88;;;18.63;81.60
56400;BME280;42298;53.638;9.876;2023-07-31T05:59:22;100381.47;;;18.60;81.23
56400;BME280;42298;53.638;9.876;2023-07-31T06:01:47;100375.75;;;18.53;81.92
56400;BME280;42298;53.638;9.876;2023-07-31T06:04:12;100380.03;;;18.47;83.15
56400;BME280;42298;53.638;9.876;2023-07-31T06:06:37;100378.47;;;18.50;82.90
56400;BME280;42298;53.638;9.876;2023-07-31T06:09:03;100364.69;;;18.57;82.81
56400;BME280;42298;53.638;9.876;2023-07-31T06:11:29;100363.50;;;18.58;82.10
56400;BME280;42298;53.638;9.876;2023-07-31T06:13:54;100372.53;;;18.51;82.77
56400;BME280;42298;53.638;9.876;2023-07-31T06:16:20;100376.22;;;18.55;82.95
56400;BME280;42298;53.638;9.876;2023-07-31T06:18:46;100374.38;;;18.66;82.91
56400;BME280;42298;53.638;9.876;2023-07-31T06:21:12;100377.13;;;18.63;82.42
56400;BME280;42298;53.638;9.876;2023-07-31T06:23:37;100381.03;;;18.58;82.97
56400;BME280;42298;53.638;9.876;2023-07-31T06:26:04;100385.91;;;18.65;82.31
56400;BME280;42298;53.638;9.876;2023-07-31T06:28:30;100384.50;;;18.74;83.32
56400;BME280;42298;53.638;9.876;2023-07-31T06:30:56;100377.31;;;18.73;82.15
56400;BME280;42298;53.638;9.876;2023-07-31T06:33:22;100383.94;;;18.88;82.42
56400;BME280;42298;53.638;9.876;2023-07-31T06:35:48;100381.22;;;18.91;81.88
56400;BME280;42298;53.638;9.876;2023-07-31T06:38:13;100392.00;;;18.93;81.89
56400;BME280;42298;53.638;9.876;2023-07-31T06:40:38;100380.50;;;18.98;81.14
56400;BME280;42298;53.638;9.876;2023-07-31T06:43:04;100357.97;;;18.84;81.00
56400;BME280;42298;53.638;9.876;2023-07-31T06:45:36;100385.22;;;18.94;81.19
56400;BME280;42298;53.638;9.876;2023-07-31T06:48:02;100387.16;;;18.90;81.96
56400;BME280;42298;53.638;9.876;2023-07-31T06:50:28;100385.66;;;18.96;82.35
56400;BME280;42298;53.638;9.876;2023-07-31T06:52:53;100397.25;;;18.98;82.71
56400;BME280;42298;53.638;9.876;2023-07-31T06:55:20;100383.16;;;19.14;81.98
56400;BME280;42298;53.638;9.876;2023-07-31T06:57:49;100385.94;;;19.14;81.65
56400;BME280;42298;53.638;9.876;2023-07-31T07:00:16;100384.50;;;19.23;81.86
56400;BME280;42298;53.638;9.876;2023-07-31T07:02:41;100387.66;;;19.22;81.25
56400;BME280;42298;53.638;9.876;2023-07-31T07:05:07;100395.28;;;19.25;81.14
56400;BME280;42298;53.638;9.876;2023-07-31T07:07:33;100386.00;;;19.17;81.26
56400;BME280;42298;53.638;9.876;2023-07-31T07:09:59;100377.50;;;19.10;82.10
56400;BME280;42298;53.638;9.876;2023-07-31T07:12:29;100374.31;;;19.08;81.92
56400;BME280;42298;53.638;9.876;2023-07-31T07:14:55;100372.25;;;19.05;82.21
56400;BME280;42298;53.638;9.876;2023-07-31T07:17:23;100383.28;;;18.98;83.27
56400;BME280;42298;53.638;9.876;2023-07-31T07:19:48;100356.88;;;18.92;83.27
56400;BME280;42298;53.638;9.876;2023-07-31T07:22:14;100377.13;;;19.12;82.35
56400;BME280;42298;53.638;9.876;2023-07-31T07:24:40;100378.41;;;19.18;82.71
56400;BME280;42298;53.638;9.876;2023-07-31T07:27:05;100379.59;;;19.17;82.78
56400;BME280;42298;53.638;9.876;2023-07-31T07:29:31;100375.69;;;19.21;83.02
56400;BME280;42298;53.638;9.876;2023-07-31T07:31:56;100379.50;;;19.10;83.42
56400;BME280;42298;53.638;9.876;2023-07-31T07:34:28;100379.59;;;19.17;83.72
56400;BME280;42298;53.638;9.876;2023-07-31T07:36:54;100369.34;;;19.24;82.45
56400;BME280;42298;53.638;9.876;2023-07-31T07:39:19;100376.34;;;19.11;82.91
56400;BME280;42298;53.638;9.876;2023-07-31T07:41:45;100370.69;;;19.08;83.63
56400;BME280;42298;53.638;9.876;2023-07-31T07:44:11;100372.53;;;19.23;83.33
56400;BME280;42298;53.638;9.876;2023-07-31T07:46:36;100357.38;;;19.24;83.20
56400;BME280;42298;53.638;9.876;2023-07-31T07:49:01;100359.44;;;19.27;84.25
56400;BME280;42298;53.638;9.876;2023-07-31T07:51:27;100358.44;;;19.38;83.65
56400;BME280;42298;53.638;9.876;2023-07-31T07:53:52;100369.97;;;19.37;82.89
56400;BME280;42298;53.638;9.876;2023-07-31T07:56:17;100361.59;;;19.37;83.56
56400;BME280;42298;53.638;9.876;2023-07-31T07:58:42;100358.84;;;19.40;82.48
56400;BME280;42298;53.638;9.876;2023-07-31T08:01:08;100355.72;;;19.45;82.27
56400;BME280;42298;53.638;9.876;2023-07-31T08:03:33;100345.75;;;19.44;82.35
56400;BME280;42298;53.638;9.876;2023-07-31T08:05:59;100354.88;;;19.41;82.76
56400;BME280;42298;53.638;9.876;2023-07-31T08:08:25;100365.00;;;19.53;83.20
56400;BME280;42298;53.638;9.876;2023-07-31T08:10:51;100357.16;;;19.65;82.74
56400;BME280;42298;53.638;9.876;2023-07-31T08:13:16;100346.81;;;19.66;81.48
56400;BME280;42298;53.638;9.876;2023-07-31T08:15:42;100351.75;;;19.79;81.03
56400;BME280;42298;53.638;9.876;2023-07-31T08:18:12;100330.13;;;19.73;81.11
56400;BME280;42298;53.638;9.876;2023-07-31T08:20:37;100336.34;;;19.92;80.29
56400;BME280;42298;53.638;9.876;2023-07-31T08:23:03;100337.66;;;20.02;80.85
56400;BME280;42298;53.638;9.876;2023-07-31T08:25:29;100340.06;;;20.03;80.18
56400;BME280;42298;53.638;9.876;2023-07-31T08:27:55;100319.34;;;20.08;80.54
56400;BME280;42298;53.638;9.876;2023-07-31T08:30:21;100317.38;;;20.12;80.14
56400;BME280;42298;53.638;9.876;2023-07-31T08:32:46;100317.91;;;20.17;79.60
56400;BME280;42298;53.638;9.876;2023-07-31T08:35:11;100309.38;;;20.10;80.26
56400;BME280;42298;53.638;9.876;2023-07-31T08:37:37;100329.16;;;20.24;79.01
56400;BME280;42298;53.638;9.876;2023-07-31T08:40:04;100320.66;;;20.14;79.87
56400;BME280;42298;53.638;9.876;2023-07-31T08:42:29;100322.72;;;20.20;80.65
56400;BME280;42298;53.638;9.876;2023-07-31T08:44:55;100322.72;;;20.24;79.56
56400;BME280;42298;53.638;9.876;2023-07-31T08:47:21;100319.56;;;20.25;80.31
56400;BME280;42298;53.638;9.876;2023-07-31T08:49:47;100320.03;;;20.31;79.83
56400;BME280;42298;53.638;9.876;2023-07-31T08:52:13;100322.94;;;20.41;79.41
56400;BME280;42298;53.638;9.876;2023-07-31T08:54:38;100311.63;;;20.31;77.39
56400;BME280;42298;53.638;9.876;2023-07-31T08:57:05;100322.34;;;20.25;78.79
56400;BME280;42298;53.638;9.876;2023-07-31T08:59:34;100330.06;;;20.35;79.38
56400;BME280;42298;53.638;9.876;2023-07-31T09:04:30;100316.06;;;20.35;79.82
56400;BME280;42298;53.638;9.876;2023-07-31T09:06:59;100311.31;;;20.39;78.17
56400;BME280;42298;53.638;9.876;2023-07-31T09:09:25;100315.75;;;20.44;79.63
56400;BME280;42298;53.638;9.876;2023-07-31T09:11:51;100330.66;;;20.58;79.30
56400;BME280;42298;53.638;9.876;2023-07-31T09:14:17;100316.69;;;20.62;78.87
56400;BME280;42298;53.638;9.876;2023-07-31T09:16:56;100304.28;;;20.59;79.27
56400;BME280;42298;53.638;9.876;2023-07-31T09:19:27;100303.53;;;20.66;78.44
56400;BME280;42298;53.638;9.876;2023-07-31T09:21:52;100293.47;;;20.54;78.46
56400;BME280;42298;53.638;9.876;2023-07-31T09:24:32;100302.25;;;20.53;79.10
56400;BME280;42298;53.638;9.876;2023-07-31T09:26:59;100288.59;;;20.48;79.15
56400;BME280;42298;53.638;9.876;2023-07-31T09:29:25;100296.22;;;20.47;78.90
56400;BME280;42298;53.638;9.876;2023-07-31T09:31:51;100289.78;;;20.47;78.71
56400;BME280;42298;53.638;9.876;2023-07-31T09:34:17;100286.19;;;20.46;77.79
56400;BME280;42298;53.638;9.876;2023-07-31T09:36:44;100286.97;;;20.43;77.13
56400;BME280;42298;53.638;9.876;2023-07-31T09:39:11;100288.88;;;20.36;77.82
56400;BME280;42298;53.638;9.876;2023-07-31T09:41:44;100285.72;;;20.37;77.64
56400;BME280;42298;53.638;9.876;2023-07-31T09:44:10;100282.91;;;20.37;78.44
56400;BME280;42298;53.638;9.876;2023-07-31T09:46:36;100273.34;;;20.38;78.55
56400;BME280;42298;53.638;9.876;2023-07-31T09:49:09;100245.31;;;20.31;78.85
56400;BME280;42298;53.638;9.876;2023-07-31T09:51:36;100277.91;;;20.60;78.83
56400;BME280;42298;53.638;9.876;2023-07-31T09:54:08;100256.63;;;20.45;78.86
56400;BME280;42298;53.638;9.876;2023-07-31T09:56:34;100266.59;;;20.46;77.81
56400;BME280;42298;53.638;9.876;2023-07-31T09:59:01;100274.16;;;20.42;77.89
56400;BME280;42298;53.638;9.876;2023-07-31T10:01:29;100268.97;;;20.41;77.94
56400;BME280;42298;53.638;9.876;2023-07-31T10:03:55;100258.88;;;20.29;77.43
56400;BME280;42298;53.638;9.876;2023-07-31T10:06:21;100286.28;;;20.57;77.39
56400;BME280;42298;53.638;9.876;2023-07-31T10:08:49;100273.34;;;20.42;76.04
56400;BME280;42298;53.638;9.876;2023-07-31T10:11:16;100265.63;;;20.25;77.16
56400;BME280;42298;53.638;9.876;2023-07-31T10:13:42;100260.06;;;20.28;77.79
56400;BME280;42298;53.638;9.876;2023-07-31T10:16:09;100258.84;;;20.26;76.80
56400;BME280;42298;53.638;9.876;2023-07-31T10:18:34;100265.66;;;20.28;77.91
56400;BME280;42298;53.638;9.876;2023-07-31T10:21:04;100262.47;;;20.26;77.77
56400;BME280;42298;53.638;9.876;2023-07-31T10:23:29;100248.47;;;20.30;78.60
56400;BME280;42298;53.638;9.876;2023-07-31T10:25:57;100249.19;;;20.20;78.41
56400;BME280;42298;53.638;9.876;2023-07-31T10:28:24;100243.09;;;20.11;80.10
56400;BME280;42298;53.638;9.876;2023-07-31T10:30:55;100237.84;;;20.06;78.44
56400;BME280;42298;53.638;9.876;2023-07-31T10:33:21;100256.41;;;20.21;78.60
56400;BME280;42298;53.638;9.876;2023-07-31T10:35:47;100251.56;;;20.18;79.25
56400;BME280;42298;53.638;9.876;2023-07-31T10:38:15;100238.28;;;20.08;78.37
56400;BME280;42298;53.638;9.876;2023-07-31T10:40:41;100244.75;;;20.15;77.97
56400;BME280;42298;53.638;9.876;2023-07-31T10:43:23;100243.47;;;20.09;76.73
56400;BME280;42298;53.638;9.876;2023-07-31T10:45:50;100238.63;;;20.03;77.50
56400;BME280;42298;53.638;9.876;2023-07-31T10:48:16;100244.47;;;20.27;77.81
56400;BME280;42298;53.638;9.876;2023-07-31T10:53:24;100236.81;;;20.17;78.11
56400;BME280;42298;53.638;9.876;2023-07-31T10:55:49;100229.06;;;20.07;77.64
56400;BME280;42298;53.638;9.876;2023-07-31T10:58:19;100228.38;;;20.14;77.79
56400;BME280;42298;53.638;9.876;2023-07-31T11:00:46;100225.50;;;20.10;77.67
56400;BME280;42298;53.638;9.876;2023-07-31T11:03:19;100220.19;;;19.98;76.22
56400;BME280;42298;53.638;9.876;2023-07-31T11:08:32;100226.56;;;19.95;77.35
56400;BME280;42298;53.638;9.876;2023-07-31T11:13:50;100229.44;;;20.02;76.58
56400;BME280;42298;53.638;9.876;2023-07-31T11:16:18;100228.97;;;19.93;77.87
56400;BME280;42298;53.638;9.876;2023-07-31T11:18:45;100204.91;;;19.85;78.54
56400;BME280;42298;53.638;9.876;2023-07-31T11:21:14;100213.69;;;19.84;79.32
56400;BME280;42298;53.638;9.876;2023-07-31T11:23:40;100198.06;;;19.79;78.92
56400;BME280;42298;53.638;9.876;2023-07-31T11:26:06;100224.19;;;19.97;77.90
56400;BME280;42298;53.638;9.876;2023-07-31T11:28:33;100208.97;;;19.91;78.39
56400;BME280;42298;53.638;9.876;2023-07-31T11:31:00;100217.78;;;19.93;78.37
56400;BME280;42298;53.638;9.876;2023-07-31T11:33:25;100220.63;;;20.00;78.96
56400;BME280;42298;53.638;9.876;2023-07-31T11:35:51;100216.31;;;19.70;78.42
56400;BME280;42298;53.638;9.876;2023-07-31T11:38:36;100207.19;;;19.73;79.01
56400;BME280;42298;53.638;9.876;2023-07-31T11:41:03;100200.75;;;19.69;79.06
56400;BME280;42298;53.638;9.876;2023-07-31T11:43:29;100202.41;;;19.73;77.96
56400;BME280;42298;53.638;9.876;2023-07-31T11:46:01;100206.66;;;19.60;76.63
56400;BME280;42298;53.638;9.876;2023-07-31T11:48:34;100212.59;;;19.55;77.93
56400;BME280;42298;53.638;9.876;2023-07-31T11:51:03;100197.66;;;19.41;76.51
56400;BME280;42298;53.638;9.876;2023-07-31T11:53:42;100193.66;;;19.38;77.91
56400;BME280;42298;53.638;9.876;2023-07-31T11:56:09;100201.47;;;19.59;78.42
56400;BME280;42298;53.638;9.876;2023-07-31T11:58:37;100205.47;;;19.61;77.94
56400;BME280;42298;53.638;9.876;2023-07-31T12:01:04;100200.31;;;19.63;77.15
56400;BME280;42298;53.638;9.876;2023-07-31T12:03:30;100204.63;;;19.57;78.25
56400;BME280;42298;53.638;9.876;2023-07-31T12:05:56;100185.41;;;19.52;77.96
56400;BME280;42298;53.638;9.876;2023-07-31T12:08:23;100181.03;;;19.51;78.01
56400;BME280;42298;53.638;9.876;2023-07-31T12:10:52;100196.28;;;19.61;78.30
56400;BME280;42298;53.638;9.876;2023-07-31T12:13:23;100193.56;;;19.68;79.04
56400;BME280;42298;53.638;9.876;2023-07-31T12:15:54;100188.00;;;19.71;77.74
56400;BME280;42298;53.638;9.876;2023-07-31T12:18:20;100189.69;;;19.79;77.83
56400;BME280;42298;53.638;9.876;2023-07-31T12:20:47;100187.56;;;19.66;76.64
56400;BME280;42298;53.638;9.876;2023-07-31T12:23:15;100196.53;;;19.45;78.98
56400;BME280;42298;53.638;9.876;2023-07-31T12:25:47;100177.34;;;19.44;79.36
56400;BME280;42298;53.638;9.876;2023-07-31T12:28:13;100163.81;;;19.46;79.78
56400;BME280;42298;53.638;9.876;2023-07-31T12:30:40;100182.78;;;19.66;79.31
56400;BME280;42298;53.638;9.876;2023-07-31T12:33:13;100162.13;;;19.38;78.32
56400;BME280;42298;53.638;9.876;2023-07-31T12:35:45;100163.50;;;19.54;78.13
56400;BME280;42298;53.638;9.876;2023-07-31T12:38:12;100163.63;;;19.68;78.68
56400;BME280;42298;53.638;9.876;2023-07-31T12:40:39;100158.41;;;19.63;78.07
56400;BME280;42298;53.638;9.876;2023-07-31T12:43:05;100149.69;;;19.32;79.15
56400;BME280;42298;53.638;9.876;2023-07-31T12:45:31;100153.06;;;19.48;80.43
56400;BME280;42298;53.638;9.876;2023-07-31T12:47:57;100121.53;;;19.47;80.01
56400;BME280;42298;53.638;9.876;2023-07-31T12:50:23;100138.56;;;19.79;80.89
56400;BME280;42298;53.638;9.876;2023-07-31T12:52:49;100145.06;;;19.90;80.13
56400;BME280;42298;53.638;9.876;2023-07-31T12:55:14;100137.88;;;19.89;79.62
56400;BME280;42298;53.638;9.876;2023-07-31T12:57:40;100139.44;;;19.86;80.88
56400;BME280;42298;53.638;9.876;2023-07-31T13:00:06;100144.25;;;19.89;81.58